createdAt,value
2018-04-23T00:00:56.473Z,6.30
2018-04-23T00:01:56.447Z,7.10
2018-04-23T00:02:56.405Z,8.80
2018-04-23T00:03:56.362Z,7.20
2018-04-23T00:04:56.322Z,8.30
2018-04-23T00:05:56.277Z,5.90
2018-04-23T00:06:56.241Z,6.20
2018-04-23T00:07:56.196Z,5.80
2018-04-23T00:08:56.172Z,6.20
2018-04-23T00:09:56.122Z,8.30
2018-04-23T00:10:56.086Z,8.50
2018-04-23T00:11:56.041Z,5.00
2018-04-23T00:12:56.007Z,6.70
2018-04-23T00:13:55.962Z,6.90
2018-04-23T00:14:55.921Z,6.20
2018-04-23T00:15:55.872Z,5.80
2018-04-23T00:16:55.845Z,8.60
2018-04-23T00:17:55.798Z,6.70
2018-04-23T00:18:55.759Z,6.90
2018-04-23T00:19:55.727Z,6.90
2018-04-23T00:20:55.684Z,7.60
2018-04-23T00:21:55.640Z,6.30
2018-04-23T00:22:55.601Z,7.70
2018-04-23T00:23:55.567Z,6.50
2018-04-23T00:24:55.516Z,8.10
2018-04-23T00:25:55.484Z,7.60
2018-04-23T00:26:55.442Z,7.30
2018-04-23T00:27:55.405Z,6.50
2018-04-23T00:28:55.368Z,6.10
2018-04-23T00:29:55.315Z,6.70
2018-04-23T00:30:55.281Z,8.60
2018-04-23T00:31:55.243Z,12.10
2018-04-23T00:32:55.200Z,6.20
2018-04-23T00:33:55.163Z,7.10
2018-04-23T00:34:55.128Z,6.90
2018-04-23T00:35:55.092Z,5.40
2018-04-23T00:36:55.044Z,6.10
2018-04-23T00:37:55.000Z,5.60
2018-04-23T00:38:54.955Z,6.50
2018-04-23T00:39:54.918Z,6.30
2018-04-23T00:40:54.883Z,4.60
2018-04-23T00:41:54.843Z,4.90
2018-04-23T00:42:54.798Z,6.20
2018-04-23T00:43:54.759Z,5.80
2018-04-23T00:44:54.721Z,5.80
2018-04-23T00:45:54.680Z,6.50
2018-04-23T00:46:54.648Z,5.60
2018-04-23T00:47:54.606Z,6.00
2018-04-23T00:48:54.563Z,5.00
2018-04-23T00:49:54.521Z,5.60
2018-04-23T00:50:54.483Z,6.40
2018-04-23T00:51:54.444Z,4.40
2018-04-23T00:52:54.400Z,5.10
2018-04-23T00:53:54.358Z,6.70
2018-04-23T00:54:54.318Z,4.90
2018-04-23T00:55:54.277Z,7.10
2018-04-23T00:56:54.242Z,3.70
2018-04-23T00:57:54.201Z,5.30
2018-04-23T00:58:54.163Z,4.10
2018-04-23T00:59:54.125Z,5.10
2018-04-23T01:00:54.077Z,6.10
2018-04-23T01:01:54.041Z,5.50
2018-04-23T01:02:54.001Z,4.40
2018-04-23T01:03:53.957Z,7.10
2018-04-23T01:04:53.922Z,6.40
2018-04-23T01:05:53.884Z,4.40
2018-04-23T01:06:53.842Z,6.80
2018-04-23T01:07:53.804Z,3.70
2018-04-23T01:08:53.763Z,3.90
2018-04-23T01:09:53.721Z,5.40
2018-04-23T01:10:53.679Z,4.80
2018-04-23T01:11:53.642Z,5.10
2018-04-23T01:12:53.604Z,3.90
2018-04-23T01:13:53.557Z,4.10
2018-04-23T01:14:53.519Z,5.40
2018-04-23T01:15:53.479Z,4.30
2018-04-23T01:16:53.439Z,3.80
2018-04-23T01:17:53.402Z,7.70
2018-04-23T01:18:53.360Z,4.60
2018-04-23T01:19:53.324Z,5.00
2018-04-23T01:20:53.282Z,5.10
2018-04-23T01:21:53.249Z,5.20
2018-04-23T01:22:53.202Z,5.00
2018-04-23T01:23:53.192Z,4.10
2018-04-23T01:24:53.125Z,4.40
2018-04-23T01:25:53.085Z,5.30
2018-04-23T01:26:53.039Z,3.70
2018-04-23T01:27:53.004Z,3.60
2018-04-23T01:28:52.968Z,5.00
2018-04-23T01:29:52.922Z,4.00
2018-04-23T01:30:52.882Z,6.00
2018-04-23T01:31:52.842Z,5.70
2018-04-23T01:32:52.804Z,4.00
2018-04-23T01:33:52.767Z,5.00
2018-04-23T01:34:52.725Z,7.40
2018-04-23T01:35:52.682Z,5.10
2018-04-23T01:36:52.645Z,5.70
2018-04-23T01:37:52.603Z,5.80
2018-04-23T01:38:52.561Z,5.40
2018-04-23T01:39:52.522Z,4.90
2018-04-23T01:40:52.481Z,4.40
2018-04-23T01:41:52.443Z,4.40
2018-04-23T01:42:52.401Z,5.50
2018-04-23T01:43:52.364Z,3.70
2018-04-23T01:44:52.320Z,4.80
2018-04-23T01:45:52.287Z,3.70
2018-04-23T01:46:52.246Z,4.90
2018-04-23T01:47:52.201Z,3.80
2018-04-23T01:48:52.161Z,4.40
2018-04-23T01:49:52.112Z,5.40
2018-04-23T01:50:52.082Z,3.50
2018-04-23T01:51:52.045Z,4.40
2018-04-23T01:52:52.004Z,3.30
2018-04-23T01:53:51.965Z,5.10
2018-04-23T01:54:51.923Z,4.50
2018-04-23T01:55:51.887Z,4.00
2018-04-23T01:56:51.843Z,5.90
2018-04-23T01:57:51.801Z,3.50
2018-04-23T01:58:51.763Z,5.60
2018-04-23T01:59:51.725Z,4.30
2018-04-23T02:00:51.687Z,4.10
2018-04-23T02:01:51.642Z,3.90
2018-04-23T02:02:51.602Z,4.40
2018-04-23T02:03:51.565Z,8.70
2018-04-23T02:04:51.524Z,5.00
2018-04-23T02:05:51.481Z,3.60
2018-04-23T02:06:51.448Z,4.70
2018-04-23T02:07:51.398Z,6.70
2018-04-23T02:08:51.364Z,3.20
2018-04-23T02:09:51.322Z,3.40
2018-04-23T02:10:51.283Z,3.40
2018-04-23T02:11:51.241Z,3.20
2018-04-23T02:12:51.203Z,3.30
2018-04-23T02:13:51.166Z,3.20
2018-04-23T02:14:51.121Z,5.00
2018-04-23T02:15:51.081Z,3.50
2018-04-23T02:16:51.044Z,4.50
2018-04-23T02:17:51.003Z,3.60
2018-04-23T02:18:50.958Z,5.80
2018-04-23T02:19:50.928Z,4.00
2018-04-23T02:20:50.893Z,5.50
2018-04-23T02:21:50.842Z,3.30
2018-04-23T02:22:50.814Z,4.70
2018-04-23T02:23:50.764Z,4.10
2018-04-23T02:24:50.724Z,3.50
2018-04-23T02:25:50.680Z,3.40
2018-04-23T02:26:50.649Z,5.60
2018-04-23T02:27:50.638Z,4.10
2018-04-23T02:28:50.567Z,3.40
2018-04-23T02:29:50.520Z,3.50
2018-04-23T02:30:50.483Z,4.60
2018-04-23T02:31:50.443Z,4.80
2018-04-23T02:32:50.406Z,3.00
2018-04-23T02:33:50.366Z,4.10
2018-04-23T02:34:50.323Z,3.40
2018-04-23T02:35:50.287Z,3.40
2018-04-23T02:36:50.246Z,3.90
2018-04-23T02:37:50.206Z,3.60
2018-04-23T02:38:50.157Z,5.30
2018-04-23T02:39:50.123Z,4.30
2018-04-23T02:40:50.085Z,6.00
2018-04-23T02:41:50.047Z,3.90
2018-04-23T02:42:50.000Z,4.10
2018-04-23T02:43:49.962Z,3.30
2018-04-23T02:44:49.924Z,3.20
2018-04-23T02:45:49.882Z,3.50
2018-04-23T02:46:49.852Z,3.70
2018-04-23T02:47:49.800Z,2.90
2018-04-23T02:48:49.765Z,3.90
2018-04-23T02:49:49.724Z,4.20
2018-04-23T02:50:49.684Z,2.90
2018-04-23T02:51:49.649Z,3.10
2018-04-23T02:52:49.606Z,3.40
2018-04-23T02:53:49.561Z,3.60
2018-04-23T02:54:49.520Z,6.20
2018-04-23T02:55:49.494Z,3.50
2018-04-23T02:56:49.445Z,2.80
2018-04-23T02:57:49.415Z,3.50
2018-04-23T02:58:49.365Z,3.10
2018-04-23T02:59:49.320Z,3.70
2018-04-23T03:00:49.288Z,3.20
2018-04-23T03:01:49.244Z,3.20
2018-04-23T03:02:49.201Z,4.20
2018-04-23T03:03:49.166Z,2.90
2018-04-23T03:04:49.126Z,3.10
2018-04-23T03:05:49.083Z,3.10
2018-04-23T03:06:49.051Z,3.00
2018-04-23T03:07:49.007Z,3.10
2018-04-23T03:08:48.962Z,3.40
2018-04-23T03:09:48.938Z,3.80
2018-04-23T03:10:48.918Z,3.30
2018-04-23T03:11:48.840Z,3.40
2018-04-23T03:12:48.808Z,3.30
2018-04-23T03:13:48.763Z,3.30
2018-04-23T03:14:48.724Z,3.90
2018-04-23T03:15:48.687Z,2.90
2018-04-23T03:16:48.644Z,3.40
2018-04-23T03:17:48.615Z,2.70
2018-04-23T03:18:48.569Z,4.00
2018-04-23T03:19:48.536Z,5.00
2018-04-23T03:20:48.543Z,5.50
2018-04-23T03:21:48.462Z,3.10
2018-04-23T03:22:48.409Z,4.10
2018-04-23T03:23:48.370Z,4.00
2018-04-23T03:24:48.324Z,3.30
2018-04-23T03:25:48.281Z,4.00
2018-04-23T03:26:48.247Z,4.80
2018-04-23T03:27:48.199Z,4.50
2018-04-23T03:28:48.165Z,3.30
2018-04-23T03:29:48.127Z,5.30
2018-04-23T03:30:48.083Z,3.00
2018-04-23T03:31:48.041Z,3.80
2018-04-23T03:32:48.014Z,4.20
2018-04-23T03:33:47.969Z,3.00
2018-04-23T03:34:47.926Z,4.40
2018-04-23T03:35:47.883Z,4.10
2018-04-23T03:36:47.846Z,4.50
2018-04-23T03:37:47.805Z,3.20
2018-04-23T03:38:47.809Z,3.40
2018-04-23T03:39:47.725Z,2.80
2018-04-23T03:40:47.685Z,5.30
2018-04-23T03:41:47.649Z,5.30
2018-04-23T03:42:47.603Z,2.90
2018-04-23T03:43:47.565Z,3.40
2018-04-23T03:44:47.522Z,3.70
2018-04-23T03:45:47.487Z,6.40
2018-04-23T03:46:47.448Z,3.00
2018-04-23T03:47:47.405Z,4.90
2018-04-23T03:48:47.422Z,3.70
2018-04-23T03:49:47.327Z,4.10
2018-04-23T03:50:47.285Z,3.80
2018-04-23T03:51:47.249Z,5.90
2018-04-23T03:52:47.211Z,5.70
2018-04-23T03:53:47.170Z,3.70
2018-04-23T03:54:47.127Z,4.70
2018-04-23T03:55:47.081Z,4.10
2018-04-23T03:56:47.046Z,5.60
2018-04-23T03:57:47.062Z,4.10
2018-04-23T03:58:46.965Z,3.90
2018-04-23T03:59:46.958Z,3.20
2018-04-23T04:00:46.889Z,4.90
2018-04-23T04:01:46.849Z,4.00
2018-04-23T04:02:46.803Z,3.90
2018-04-23T04:03:46.766Z,3.80
2018-04-23T04:04:46.726Z,3.10
2018-04-23T04:05:46.683Z,3.90
2018-04-23T04:06:46.650Z,4.20
2018-04-23T04:07:46.602Z,4.00
2018-04-23T04:08:46.566Z,2.70
2018-04-23T04:09:46.525Z,3.00
2018-04-23T04:10:46.482Z,3.70
2018-04-23T04:11:46.446Z,2.90
2018-04-23T04:12:46.404Z,3.40
2018-04-23T04:13:46.363Z,3.60
2018-04-23T04:14:46.327Z,4.10
2018-04-23T04:15:46.289Z,4.20
2018-04-23T04:16:46.242Z,4.10
2018-04-23T04:17:46.203Z,8.30
2018-04-23T04:18:46.165Z,4.00
2018-04-23T04:19:46.122Z,4.20
2018-04-23T04:20:46.088Z,4.70
2018-04-23T04:21:46.043Z,5.10
2018-04-23T04:22:46.008Z,2.90
2018-04-23T04:23:45.964Z,4.00
2018-04-23T04:24:45.924Z,3.60
2018-04-23T04:25:45.891Z,3.00
2018-04-23T04:26:45.845Z,3.70
2018-04-23T04:27:45.801Z,2.70
2018-04-23T04:28:45.765Z,2.90
2018-04-23T04:29:45.741Z,3.30
2018-04-23T04:30:45.688Z,5.30
2018-04-23T04:31:45.644Z,3.70
2018-04-23T04:32:45.603Z,3.50
2018-04-23T04:33:45.561Z,2.90
2018-04-23T04:34:45.536Z,3.60
2018-04-23T04:35:45.495Z,3.80
2018-04-23T04:36:45.438Z,3.10
2018-04-23T04:37:45.398Z,4.20
2018-04-23T04:38:45.361Z,3.80
2018-04-23T04:39:45.327Z,3.50
2018-04-23T04:40:45.285Z,3.60
2018-04-23T04:41:45.243Z,3.80
2018-04-23T04:42:45.206Z,3.60
2018-04-23T04:43:45.164Z,4.30
2018-04-23T04:44:45.122Z,4.80
2018-04-23T04:45:45.091Z,4.50
2018-04-23T04:46:45.039Z,4.50
2018-04-23T04:47:45.003Z,3.00
2018-04-23T04:48:44.965Z,3.60
2018-04-23T04:49:44.924Z,3.40
2018-04-23T04:50:44.878Z,3.20
2018-04-23T04:51:44.858Z,3.30
2018-04-23T04:52:44.803Z,4.00
2018-04-23T04:53:44.768Z,3.60
2018-04-23T04:54:44.731Z,2.90
2018-04-23T04:55:44.681Z,3.30
2018-04-23T04:56:44.646Z,2.90
2018-04-23T04:57:44.602Z,3.90
2018-04-23T04:58:44.569Z,2.90
2018-04-23T04:59:44.526Z,3.60
2018-04-23T05:00:44.484Z,4.50
2018-04-23T05:01:44.444Z,6.20
2018-04-23T05:02:44.404Z,3.90
2018-04-23T05:03:44.364Z,3.50
2018-04-23T05:04:44.327Z,3.00
2018-04-23T05:05:44.282Z,3.90
2018-04-23T05:06:44.240Z,3.10
2018-04-23T05:07:44.205Z,3.00
2018-04-23T05:08:44.165Z,3.20
2018-04-23T05:09:44.126Z,5.40
2018-04-23T05:10:44.081Z,3.60
2018-04-23T05:11:44.105Z,4.30
2018-04-23T05:12:44.001Z,3.50
2018-04-23T05:13:43.950Z,3.70
2018-04-23T05:14:43.923Z,3.20
2018-04-23T05:15:43.887Z,2.90
2018-04-23T05:16:43.844Z,3.40
2018-04-23T05:17:43.801Z,3.00
2018-04-23T05:18:43.762Z,3.00
2018-04-23T05:19:43.722Z,3.50
2018-04-23T05:20:43.696Z,3.20
2018-04-23T05:21:43.641Z,3.30
2018-04-23T05:22:43.609Z,5.40
2018-04-23T05:23:43.581Z,2.80
2018-04-23T05:24:43.523Z,3.40
2018-04-23T05:25:43.488Z,3.60
2018-04-23T05:26:43.446Z,2.80
2018-04-23T05:27:43.399Z,4.60
2018-04-23T05:28:43.365Z,4.10
2018-04-23T05:29:43.324Z,2.80
2018-04-23T05:30:43.305Z,3.20
2018-04-23T05:31:43.240Z,2.90
2018-04-23T05:32:43.203Z,3.00
2018-04-23T05:33:43.168Z,3.20
2018-04-23T05:34:43.117Z,4.20
2018-04-23T05:35:43.084Z,4.40
2018-04-23T05:36:43.050Z,3.20
2018-04-23T05:37:43.010Z,3.30
2018-04-23T05:38:42.965Z,2.70
2018-04-23T05:39:42.923Z,2.70
2018-04-23T05:40:42.881Z,2.80
2018-04-23T05:41:42.839Z,2.90
2018-04-23T05:42:42.801Z,2.70
2018-04-23T05:43:42.761Z,2.50
2018-04-23T05:44:42.722Z,4.20
2018-04-23T05:45:42.679Z,2.50
2018-04-23T05:46:42.657Z,3.00
2018-04-23T05:47:42.602Z,3.10
2018-04-23T05:48:42.571Z,2.60
2018-04-23T05:49:42.528Z,3.10
2018-04-23T05:50:42.481Z,2.90
2018-04-23T05:51:42.430Z,2.80
2018-04-23T05:52:42.404Z,4.50
2018-04-23T05:53:42.358Z,3.40
2018-04-23T05:54:42.324Z,2.40
2018-04-23T05:55:42.279Z,2.90
2018-04-23T05:56:42.243Z,2.80
2018-04-23T05:57:42.194Z,2.80
2018-04-23T05:58:42.171Z,3.30
2018-04-23T05:59:42.131Z,2.60
2018-04-23T06:00:42.084Z,4.40
2018-04-23T06:01:42.038Z,2.80
2018-04-23T06:02:41.997Z,2.50
2018-04-23T06:03:41.959Z,3.40
2018-04-23T06:04:41.909Z,3.20
2018-04-23T06:05:41.880Z,2.60
2018-04-23T06:06:41.843Z,2.80
2018-04-23T06:07:41.798Z,4.40
2018-04-23T06:08:41.758Z,3.40
2018-04-23T06:09:41.716Z,2.90
2018-04-23T06:10:41.679Z,2.80
2018-04-23T06:11:41.639Z,4.00
2018-04-23T06:12:41.603Z,2.40
2018-04-23T06:13:41.551Z,2.70
2018-04-23T06:14:41.514Z,2.60
2018-04-23T06:15:41.472Z,3.50
2018-04-23T06:16:41.443Z,2.60
2018-04-23T06:17:41.457Z,3.00
2018-04-23T06:18:41.359Z,3.20
2018-04-23T06:19:41.359Z,4.50
2018-04-23T06:20:41.278Z,3.20
2018-04-23T06:21:41.233Z,4.00
2018-04-23T06:22:41.195Z,3.60
2018-04-23T06:23:41.162Z,2.40
2018-04-23T06:24:41.113Z,3.10
2018-04-23T06:25:41.077Z,2.70
2018-04-23T06:26:41.031Z,4.50
2018-04-23T06:27:41.001Z,3.90
2018-04-23T06:28:40.954Z,3.10
2018-04-23T06:29:40.919Z,2.80
2018-04-23T06:30:40.880Z,3.30
2018-04-23T06:31:40.831Z,3.70
2018-04-23T06:32:40.796Z,4.30
2018-04-23T06:33:40.750Z,2.60
2018-04-23T06:34:40.701Z,3.70
2018-04-23T06:35:40.673Z,3.20
2018-04-23T06:36:40.633Z,5.40
2018-04-23T06:37:40.588Z,3.00
2018-04-23T06:38:40.548Z,4.10
2018-04-23T06:39:40.513Z,2.50
2018-04-23T06:40:40.471Z,3.70
2018-04-23T06:41:40.431Z,2.80
2018-04-23T06:42:40.404Z,2.80
2018-04-23T06:43:40.351Z,3.30
2018-04-23T06:44:40.315Z,4.70
2018-04-23T06:45:40.312Z,3.20
2018-04-23T06:46:40.231Z,5.90
2018-04-23T06:47:40.188Z,3.50
2018-04-23T06:48:40.147Z,3.40
2018-04-23T06:49:40.112Z,4.30
2018-04-23T06:50:40.068Z,3.50
2018-04-23T06:51:40.034Z,3.50
2018-04-23T06:52:39.996Z,2.70
2018-04-23T06:53:39.948Z,6.40
2018-04-23T06:54:39.925Z,3.80
2018-04-23T06:55:39.871Z,3.50
2018-04-23T06:56:39.837Z,5.50
2018-04-23T06:57:39.791Z,3.50
2018-04-23T06:58:39.747Z,3.00
2018-04-23T06:59:39.708Z,3.20
2018-04-23T07:00:39.681Z,4.10
2018-04-23T07:01:39.632Z,3.70
2018-04-23T07:02:39.591Z,10.10
2018-04-23T07:03:39.546Z,5.00
2018-04-23T07:04:39.529Z,6.70
2018-04-23T07:05:39.462Z,8.80
2018-04-23T07:06:39.430Z,10.10
2018-04-23T07:07:39.388Z,8.40
2018-04-23T07:08:39.353Z,9.90
2018-04-23T07:09:39.310Z,8.80
2018-04-23T07:10:39.267Z,10.90
2018-04-23T07:11:39.229Z,10.10
2018-04-23T07:12:39.191Z,9.00
2018-04-23T07:13:39.164Z,11.60
2018-04-23T07:14:39.103Z,11.00
2018-04-23T07:15:39.064Z,8.50
2018-04-23T07:16:39.071Z,11.70
2018-04-23T07:17:38.997Z,9.90
2018-04-23T07:18:38.954Z,9.70
2018-04-23T07:19:38.903Z,10.00
2018-04-23T07:20:38.872Z,10.30
2018-04-23T07:21:38.829Z,9.90
2018-04-23T07:22:38.785Z,9.70
2018-04-23T07:23:38.746Z,9.60
2018-04-23T07:24:38.706Z,11.50
2018-04-23T07:25:38.666Z,8.40
2018-04-23T07:26:38.626Z,7.20
2018-04-23T07:27:38.584Z,9.90
2018-04-23T07:28:38.542Z,9.80
2018-04-23T07:29:38.513Z,8.30
2018-04-23T07:30:38.479Z,8.30
2018-04-23T07:31:38.425Z,11.10
2018-04-23T07:32:38.378Z,8.60
2018-04-23T07:33:38.340Z,6.90
2018-04-23T07:34:38.304Z,8.40
2018-04-23T07:35:38.260Z,9.20
2018-04-23T07:36:38.229Z,7.50
2018-04-23T07:37:38.182Z,8.60
2018-04-23T07:38:38.142Z,9.30
2018-04-23T07:39:38.101Z,8.10
2018-04-23T07:40:38.099Z,8.70
2018-04-23T07:41:38.017Z,7.60
2018-04-23T07:42:37.977Z,6.80
2018-04-23T07:43:37.945Z,7.50
2018-04-23T07:44:37.898Z,8.10
2018-04-23T07:45:37.853Z,6.60
2018-04-23T07:46:37.813Z,5.20
2018-04-23T07:47:37.777Z,6.70
2018-04-23T07:48:37.739Z,6.80
2018-04-23T07:49:37.696Z,7.20
2018-04-23T07:50:37.658Z,5.70
2018-04-23T07:51:37.622Z,7.90
2018-04-23T07:52:37.584Z,7.50
2018-04-23T07:53:37.543Z,5.80
2018-04-23T07:54:37.490Z,6.10
2018-04-23T07:55:37.451Z,7.50
2018-04-23T07:56:37.415Z,5.00
2018-04-23T07:57:37.377Z,5.80
2018-04-23T07:58:37.335Z,6.70
2018-04-23T07:59:37.291Z,6.40
2018-04-23T08:00:37.254Z,5.40
2018-04-23T08:01:37.213Z,5.90
2018-04-23T08:02:37.173Z,5.90
2018-04-23T08:03:37.132Z,5.40
2018-04-23T08:04:37.090Z,5.10
2018-04-23T08:05:37.053Z,5.70
2018-04-23T08:06:37.768Z,5.90
2018-04-23T08:07:36.965Z,5.50
2018-04-23T08:08:36.942Z,6.20
2018-04-23T08:09:36.882Z,5.30
2018-04-23T08:10:36.851Z,7.00
2018-04-23T08:11:36.811Z,5.60
2018-04-23T08:12:36.764Z,6.80
2018-04-23T08:13:36.737Z,4.70
2018-04-23T08:14:36.687Z,5.00
2018-04-23T08:15:36.648Z,5.40
2018-04-23T08:16:36.602Z,4.00
2018-04-23T08:17:36.559Z,4.40
2018-04-23T08:18:36.532Z,5.40
2018-04-23T08:19:36.482Z,5.00
2018-04-23T08:20:36.435Z,4.00
2018-04-23T08:21:36.418Z,4.30
2018-04-23T08:22:36.360Z,5.40
2018-04-23T08:23:36.325Z,4.40
2018-04-23T08:24:36.296Z,4.80
2018-04-23T08:25:36.242Z,4.10
2018-04-23T08:26:36.201Z,5.10
2018-04-23T08:27:36.155Z,5.40
2018-04-23T08:28:36.120Z,3.70
2018-04-23T08:29:36.081Z,5.70
2018-04-23T08:30:36.039Z,5.10
2018-04-23T08:31:36.010Z,4.40
2018-04-23T08:32:35.987Z,5.10
2018-04-23T08:33:35.929Z,4.60
2018-04-23T08:34:35.886Z,3.60
2018-04-23T08:35:35.854Z,4.60
2018-04-23T08:36:35.911Z,4.90
2018-04-23T08:37:35.847Z,3.90
2018-04-23T08:38:35.719Z,4.90
2018-04-23T08:39:35.678Z,3.80
2018-04-23T08:40:35.635Z,3.60
2018-04-23T08:41:35.599Z,4.20
2018-04-23T08:42:35.555Z,3.20
2018-04-23T08:43:35.516Z,4.00
2018-04-23T08:44:35.470Z,4.00
2018-04-23T08:45:35.439Z,4.10
2018-04-23T08:46:35.399Z,3.90
2018-04-23T08:47:35.356Z,4.10
2018-04-23T08:48:35.319Z,3.40
2018-04-23T08:49:35.285Z,4.10
2018-04-23T08:50:35.238Z,4.10
2018-04-23T08:51:35.193Z,3.70
2018-04-23T08:52:35.182Z,3.90
2018-04-23T08:53:35.113Z,3.90
2018-04-23T08:54:35.081Z,3.60
2018-04-23T08:55:35.035Z,3.60
2018-04-23T08:56:34.993Z,4.70
2018-04-23T08:57:34.960Z,3.40
2018-04-23T08:58:34.911Z,4.10
2018-04-23T08:59:34.876Z,4.20
2018-04-23T09:00:34.835Z,2.70
2018-04-23T09:01:34.804Z,4.30
2018-04-23T09:02:34.752Z,2.80
2018-04-23T09:03:34.721Z,3.80
2018-04-23T09:04:34.672Z,4.60
2018-04-23T09:05:34.637Z,4.30
2018-04-23T09:06:34.589Z,3.50
2018-04-23T09:07:34.551Z,4.00
2018-04-23T09:08:34.511Z,3.40
2018-04-23T09:09:34.472Z,3.40
2018-04-23T09:10:34.428Z,2.60
2018-04-23T09:11:34.406Z,2.80
2018-04-23T09:12:34.355Z,3.70
2018-04-23T09:13:34.312Z,3.10
2018-04-23T09:14:34.271Z,2.80
2018-04-23T09:15:34.229Z,3.00
2018-04-23T09:16:34.192Z,3.20
2018-04-23T09:17:34.149Z,2.80
2018-04-23T09:18:34.110Z,3.40
2018-04-23T09:19:34.070Z,3.50
2018-04-23T09:20:34.027Z,2.50
2018-04-23T09:21:33.996Z,3.40
2018-04-23T09:22:33.955Z,4.20
2018-04-23T09:23:33.910Z,3.10
2018-04-23T09:24:33.876Z,2.80
2018-04-23T09:25:33.820Z,3.00
2018-04-23T09:26:33.793Z,3.00
2018-04-23T09:27:33.747Z,3.30
2018-04-23T09:28:33.709Z,2.70
2018-04-23T09:29:33.695Z,2.90
2018-04-23T09:30:33.631Z,2.60
2018-04-23T09:31:33.643Z,2.70
2018-04-23T09:32:33.546Z,3.60
2018-04-23T09:33:33.518Z,2.80
2018-04-23T09:34:33.485Z,2.60
2018-04-23T09:35:33.424Z,2.60
2018-04-23T09:36:33.387Z,2.60
2018-04-23T09:37:33.344Z,2.40
2018-04-23T09:38:33.304Z,2.70
2018-04-23T09:39:33.272Z,3.30
2018-04-23T09:40:33.221Z,2.80
2018-04-23T09:41:33.182Z,2.70
2018-04-23T09:42:33.140Z,2.80
2018-04-23T09:43:33.106Z,2.50
2018-04-23T09:44:33.106Z,2.40
2018-04-23T09:45:33.022Z,2.60
2018-04-23T09:46:32.989Z,2.70
2018-04-23T09:47:32.947Z,2.50
2018-04-23T09:48:32.904Z,2.40
2018-04-23T09:49:32.867Z,3.70
2018-04-23T09:50:32.821Z,2.60
2018-04-23T09:51:32.775Z,3.10
2018-04-23T09:52:32.746Z,2.60
2018-04-23T09:53:32.702Z,2.50
2018-04-23T09:54:32.660Z,2.50
2018-04-23T09:55:32.622Z,2.80
2018-04-23T09:56:32.582Z,3.20
2018-04-23T09:57:32.544Z,3.30
2018-04-23T09:58:32.503Z,2.70
2018-04-23T09:59:32.459Z,2.70
2018-04-23T10:00:32.423Z,2.30
2018-04-23T10:01:32.387Z,2.50
2018-04-23T10:02:32.342Z,3.10
2018-04-23T10:03:32.298Z,2.70
2018-04-23T10:04:32.269Z,2.40
2018-04-23T10:05:32.211Z,2.80
2018-04-23T10:06:32.175Z,2.70
2018-04-23T10:07:32.131Z,2.30
2018-04-23T10:08:32.099Z,2.40
2018-04-23T10:09:32.064Z,2.60
2018-04-23T10:10:32.015Z,2.30
2018-04-23T10:11:31.980Z,3.20
2018-04-23T10:12:31.944Z,3.40
2018-04-23T10:13:31.904Z,2.50
2018-04-23T10:14:31.852Z,2.40
2018-04-23T10:15:31.817Z,2.60
2018-04-23T10:16:31.784Z,2.50
2018-04-23T10:17:31.734Z,2.50
2018-04-23T10:18:31.698Z,2.90
2018-04-23T10:19:31.658Z,2.60
2018-04-23T10:20:31.620Z,2.20
2018-04-23T10:21:31.584Z,2.10
2018-04-23T10:22:31.538Z,2.40
2018-04-23T10:23:31.495Z,2.60
2018-04-23T10:24:31.464Z,2.80
2018-04-23T10:25:31.418Z,2.20
2018-04-23T10:26:31.373Z,3.20
2018-04-23T10:27:31.338Z,2.50
2018-04-23T10:28:31.296Z,2.70
2018-04-23T10:29:31.253Z,2.40
2018-04-23T10:30:31.222Z,2.10
2018-04-23T10:31:31.174Z,2.90
2018-04-23T10:32:31.140Z,2.60
2018-04-23T10:33:31.099Z,2.70
2018-04-23T10:34:31.056Z,2.30
2018-04-23T10:35:31.018Z,2.50
2018-04-23T10:36:30.979Z,2.10
2018-04-23T10:37:30.936Z,2.30
2018-04-23T10:38:30.904Z,2.10
2018-04-23T10:39:30.858Z,2.40
2018-04-23T10:40:30.813Z,2.30
2018-04-23T10:41:30.781Z,2.40
2018-04-23T10:42:30.730Z,2.20
2018-04-23T10:43:30.693Z,2.20
2018-04-23T10:44:30.657Z,2.20
2018-04-23T10:45:30.639Z,2.60
2018-04-23T10:46:30.575Z,2.20
2018-04-23T10:47:30.533Z,2.80
2018-04-23T10:48:30.494Z,2.10
2018-04-23T10:49:30.447Z,2.30
2018-04-23T10:50:30.410Z,2.20
2018-04-23T10:51:30.380Z,2.30
2018-04-23T10:52:30.326Z,2.00
2018-04-23T10:53:30.294Z,1.90
2018-04-23T10:54:30.259Z,1.90
2018-04-23T10:55:30.211Z,2.20
2018-04-23T10:56:30.174Z,2.30
2018-04-23T10:57:30.132Z,2.10
2018-04-23T10:58:30.090Z,2.20
2018-04-23T10:59:30.053Z,2.40
2018-04-23T11:00:30.027Z,2.10
2018-04-23T11:01:29.973Z,1.80
2018-04-23T11:02:29.931Z,2.00
2018-04-23T11:03:29.890Z,1.90
2018-04-23T11:04:29.853Z,2.30
2018-04-23T11:05:29.813Z,2.20
2018-04-23T11:06:29.762Z,2.70
2018-04-23T11:07:29.730Z,2.10
2018-04-23T11:08:29.686Z,2.20
2018-04-23T11:09:29.659Z,2.10
2018-04-23T11:10:29.607Z,2.20
2018-04-23T11:11:29.574Z,2.00
2018-04-23T11:12:29.529Z,2.00
2018-04-23T11:13:29.497Z,2.20
2018-04-23T11:14:29.447Z,2.30
2018-04-23T11:15:29.407Z,2.10
2018-04-23T11:16:29.371Z,2.40
2018-04-23T11:17:29.328Z,2.00
2018-04-23T11:18:29.286Z,2.20
2018-04-23T11:19:29.249Z,2.30
2018-04-23T11:20:29.217Z,2.50
2018-04-23T11:21:29.172Z,2.20
2018-04-23T11:22:29.129Z,1.90
2018-04-23T11:23:29.088Z,2.10
2018-04-23T11:24:29.049Z,1.90
2018-04-23T11:25:29.016Z,2.10
2018-04-23T11:26:28.976Z,2.20
2018-04-23T11:27:28.934Z,1.80
2018-04-23T11:28:28.886Z,2.00
2018-04-23T11:29:28.852Z,2.20
2018-04-23T11:30:28.799Z,2.40
2018-04-23T11:31:28.773Z,2.10
2018-04-23T11:32:28.734Z,2.30
2018-04-23T11:33:28.684Z,2.00
2018-04-23T11:34:28.641Z,1.90
2018-04-23T11:35:28.607Z,2.10
2018-04-23T11:36:28.566Z,2.10
2018-04-23T11:37:28.528Z,1.90
2018-04-23T11:38:28.482Z,2.10
2018-04-23T11:39:28.451Z,2.00
2018-04-23T11:40:28.410Z,2.30
2018-04-23T11:41:28.370Z,2.30
2018-04-23T11:42:28.323Z,1.80
2018-04-23T11:43:28.280Z,2.00
2018-04-23T11:44:28.244Z,2.20
2018-04-23T11:45:28.203Z,1.90
2018-04-23T11:46:28.161Z,2.20
2018-04-23T11:47:28.130Z,1.90
2018-04-23T11:48:28.088Z,2.10
2018-04-23T11:49:28.043Z,1.90
2018-04-23T11:50:28.004Z,2.20
2018-04-23T11:51:27.966Z,2.00
2018-04-23T11:52:27.926Z,2.40
2018-04-23T11:53:27.884Z,1.80
2018-04-23T11:54:27.843Z,1.90
2018-04-23T11:55:27.806Z,1.90
2018-04-23T11:56:27.750Z,2.20
2018-04-23T11:57:27.723Z,1.90
2018-04-23T11:58:27.684Z,2.00
2018-04-23T11:59:27.642Z,2.10
2018-04-23T12:00:27.602Z,2.20
2018-04-23T12:01:27.558Z,2.00
2018-04-23T12:02:27.538Z,2.00
2018-04-23T12:03:27.483Z,1.70
2018-04-23T12:04:27.468Z,2.00
2018-04-23T12:05:27.403Z,1.70
2018-04-23T12:06:27.365Z,2.00
2018-04-23T12:07:27.319Z,2.00
2018-04-23T12:08:27.279Z,1.90
2018-04-23T12:09:27.239Z,1.90
2018-04-23T12:10:27.199Z,1.80
2018-04-23T12:11:27.164Z,2.00
2018-04-23T12:12:27.121Z,2.00
2018-04-23T12:13:27.076Z,2.00
2018-04-23T12:14:27.037Z,1.80
2018-04-23T12:15:27.002Z,1.90
2018-04-23T12:16:26.965Z,1.80
2018-04-23T12:17:26.954Z,1.60
2018-04-23T12:18:26.881Z,1.70
2018-04-23T12:19:26.840Z,2.00
2018-04-23T12:20:26.803Z,1.70
2018-04-23T12:21:26.760Z,1.90
2018-04-23T12:22:26.718Z,1.70
2018-04-23T12:23:26.688Z,2.00
2018-04-23T12:24:26.658Z,2.50
2018-04-23T12:25:26.596Z,2.00
2018-04-23T12:26:26.563Z,1.90
2018-04-23T12:27:26.517Z,1.80
2018-04-23T12:28:26.483Z,1.70
2018-04-23T12:29:26.443Z,1.60
2018-04-23T12:30:26.403Z,1.80
2018-04-23T12:31:26.361Z,1.70
2018-04-23T12:32:26.319Z,1.80
2018-04-23T12:33:26.279Z,2.10
2018-04-23T12:34:26.238Z,1.80
2018-04-23T12:35:26.198Z,1.60
2018-04-23T12:36:26.163Z,1.80
2018-04-23T12:37:26.120Z,1.60
2018-04-23T12:38:26.079Z,1.80
2018-04-23T12:39:26.037Z,1.80
2018-04-23T12:40:26.005Z,1.70
2018-04-23T12:41:25.965Z,1.50
2018-04-23T12:42:25.917Z,1.80
2018-04-23T12:43:25.884Z,1.80
2018-04-23T12:44:25.835Z,1.60
2018-04-23T12:45:25.796Z,1.50
2018-04-23T12:46:25.762Z,1.90
2018-04-23T12:47:25.729Z,1.70
2018-04-23T12:48:25.674Z,1.80
2018-04-23T12:49:25.641Z,1.70
2018-04-23T12:50:25.597Z,1.70
2018-04-23T12:51:25.556Z,1.80
2018-04-23T12:52:25.526Z,1.80
2018-04-23T12:53:25.477Z,1.90
2018-04-23T12:54:25.446Z,1.60
2018-04-23T12:55:25.406Z,1.90
2018-04-23T12:56:25.358Z,1.70
2018-04-23T12:57:25.316Z,1.60
2018-04-23T12:58:25.278Z,1.50
2018-04-23T12:59:25.232Z,1.70
2018-04-23T13:00:25.198Z,1.70
2018-04-23T13:01:25.160Z,1.70
2018-04-23T13:02:25.113Z,1.50
2018-04-23T13:03:25.076Z,1.60
2018-04-23T13:04:25.094Z,1.50
2018-04-23T13:05:24.991Z,1.50
2018-04-23T13:06:24.953Z,1.70
2018-04-23T13:07:24.914Z,1.60
2018-04-23T13:08:24.876Z,1.80
2018-04-23T13:09:24.849Z,1.60
2018-04-23T13:10:24.791Z,1.70
2018-04-23T13:11:24.762Z,1.60
2018-04-23T13:12:24.722Z,1.70
2018-04-23T13:13:24.675Z,1.60
2018-04-23T13:14:24.641Z,1.90
2018-04-23T13:15:24.591Z,1.70
2018-04-23T13:16:24.563Z,1.90
2018-04-23T13:17:24.514Z,1.80
2018-04-23T13:18:24.498Z,1.60